Flight Track Log - Related Links

Times and Time Zones

All times are in EDT time to prevent confusion due to time zone crossing. See the ASH3770 flight status page for this flight to view local times or setup timezone preferences in your user account.


Time Position Orientation Groundspeed Altitude Reporting Facility
EDT Latitude Longitude Course Direction KTS MPH feet Rate Location/Type
Fri 06:52:10 PM 40.5172 -80.3592 289° West 189 217 5,100  Level Cleveland Center
Fri 06:53:00 PM 40.5597 -80.6145 285° West  Level FlightAware Approximate
Fri 06:53:09 PM 40.5339 -80.4383 286° West 202 232 7,400  Level Cleveland Center
Fri 06:54:00 PM 40.5871 -80.7466 291° West  Level FlightAware Approximate
Fri 06:54:09 PM 40.5528 -80.5283 285° West 231 266 10,000  Level Cleveland Center
Fri 06:55:00 PM 40.6218 -80.8757 285° West  Level FlightAware Approximate
Fri 06:55:10 PM 40.5736 -80.6269 286° West 259 298 11,700  Level Cleveland Center
Fri 06:56:00 PM 40.6512 -81.0071 282° West  Level FlightAware Approximate
Fri 06:56:09 PM 40.5944 -80.7417 283° West 297 342 13,300  Level Cleveland Center
Fri 06:57:10 PM 40.6150 -80.8594 283° West 318 366 15,600 2,150 Climbing Cleveland Center
Fri 06:58:09 PM 40.6378 -80.9797 284° West 332 382 17,600 1,966 Climbing Cleveland Center
Fri 06:59:09 PM 40.6600 -81.1250 281° West 352 405 19,500 1,700 Climbing Cleveland Center
Fri 07:00:09 PM 40.6842 -81.2539 284° West 357 411 21,000 1,500 Climbing Cleveland Center
Fri 07:01:09 PM 40.7083 -81.3883 283° West 368 423 22,500 1,400 Climbing Cleveland Center
Fri 07:02:09 PM 40.7303 -81.5256 282° West 374 430 23,800 1,339 Climbing Cleveland Center
Fri 07:03:10 PM 40.7561 -81.6686 283° West 388 447 25,200 1,350 Climbing Cleveland Center
Fri 07:04:09 PM 40.7797 -81.8089 283° West 394 453 26,500 1,008 Climbing Cleveland Center
Fri 07:05:09 PM 40.8033 -81.9381 284° West 394 453 27,200 744 Climbing Cleveland Center
Fri 07:06:10 PM 40.8286 -82.0842 283° West 404 465 28,000 1,050 Climbing Cleveland Center
Fri 07:07:09 PM 40.8536 -82.2328 283° West 412 474 29,300 1,400 Climbing Cleveland Center
Fri 07:08:10 PM 40.8783 -82.3819 282° West 412 474 30,800 1,289 Climbing Cleveland Center
Fri 07:09:10 PM 40.9050 -82.5419 282° West 412 474 31,900 1,150 Climbing Cleveland Center
Fri 07:10:10 PM 40.9294 -82.6911 282° West 412 474 33,100 1,261 Climbing Cleveland Center
Fri 07:11:09 PM 40.9519 -82.8292 282° West 403 464 34,400 1,000 Climbing Cleveland Center
Fri 07:12:10 PM 40.9761 -82.9731 283° West 398 458 35,100 694 Climbing Cleveland Center
Fri 07:13:10 PM 40.9981 -83.1142 282° West 393 452 35,800 454 Climbing Cleveland Center
Fri 07:14:09 PM 41.0222 -83.2444 284° West 393 452 36,000 100 Climbing Cleveland Center
Fri 07:15:10 PM 41.0475 -83.3997 282° West 417 480 36,000  Level Cleveland Center
Fri 07:16:10 PM 41.0708 -83.5550 281° West 431 496 36,000 -100 Level Cleveland Center
Fri 07:17:10 PM 41.0917 -83.7047 281° West 431 496 35,800 -750 Descending Cleveland Center
Fri 07:18:10 PM 41.1203 -83.8772 282° West 431 496 34,500 -587 Descending Cleveland Center
Fri 07:20:14 PM 41.1675 -84.1819 282° West 404 465 34,000 -161 Descending Chicago Center
Fri 07:21:16 PM 41.1889 -84.3294 281° West 405 466 34,000  Level Chicago Center
Fri 07:22:18 PM 41.2033 -84.4772 277° West 406 467 34,000  Level Chicago Center
Fri 07:23:20 PM 41.2119 -84.6250 274° West 402 463 34,000  Level Chicago Center
Fri 07:24:22 PM 41.2214 -84.7989 274° West 394 453 34,000 -484 Level Chicago Center
Fri 07:25:24 PM 41.2292 -84.9467 274° West 399 459 33,000 -968 Descending Chicago Center
Fri 07:26:26 PM 41.2369 -85.0981 274° West 407 468 32,000 -968 Descending Chicago Center
Fri 07:27:28 PM 41.2447 -85.2417 274° West 397 457 31,000 -484 Descending Chicago Center
Fri 07:28:30 PM 41.2514 -85.3778 274° West 378 435 31,000 -435 Level Chicago Center
Fri 07:29:32 PM 41.2581 -85.5167 274° West 374 430 30,100 -919 Descending Chicago Center
Fri 07:30:34 PM 41.2656 -85.6547 274° West 374 430 29,100 -1,500 Descending Chicago Center
Fri 07:31:36 PM 41.2717 -85.7925 273° West 375 432 27,000 -1,935 Descending Chicago Center
Fri 07:32:38 PM 41.2786 -85.9708 273° West 400 460 25,100 -968 Descending Chicago Center
Fri 07:33:40 PM 41.3047 -86.1256 283° West 433 498 25,000 -48 Descending Chicago Center
Fri 07:34:42 PM 41.3428 -86.2778 288° West 435 501 25,000 -145 Level Chicago Center
Fri 07:35:44 PM 41.3800 -86.4242 289° West 421 484 24,700 -1,306 Descending Chicago Center
Fri 07:36:46 PM 41.4144 -86.5647 288° West 406 467 22,300 -2,323 Descending Chicago Center
Fri 07:37:48 PM 41.4475 -86.6997 288° West 385 443 19,900 -2,516 Descending Chicago Center
Fri 07:38:50 PM 41.4889 -86.8594 289° West 387 445 17,100 -2,585 Descending Chicago Center
Fri 07:39:51 PM 41.5203 -86.9947 287° West 379 436 14,600 -2,186 Descending Chicago Center
Fri 07:40:59 PM 41.5500 -87.1333 286° West 348 400 12,400 -1,219 Descending Chicago TRACON
Fri 07:41:59 PM 41.5833 -87.2500 291° West 337 388 12,000 -203 Descending Chicago TRACON
Fri 07:42:57 PM 41.6364 -87.3342 310° West 338 389 12,000  Level Chicago Center
Fri 07:43:59 PM 41.7053 -87.4492 309° West 333 383 12,000 -145 Level Chicago Center
Fri 07:45:01 PM 41.7522 -87.5242 310° West 271 312 11,700 -726 Descending Chicago Center
Fri 07:46:03 PM 41.7897 -87.5881 308° West 224 258 10,500 -1,232 Descending Chicago Center
Fri 07:46:53 PM 41.8167 -87.6333 309° West 187 215 9,400 -1,527 Descending Chicago TRACON
Fri 07:47:53 PM 41.8167 -87.7167 270° West 202 232 7,700 -1,190 Descending Chicago TRACON
Fri 07:48:54 PM 41.8000 -87.7833 251° West 196 226 7,000 -347 Descending Chicago TRACON
Fri 07:49:54 PM 41.8000 -87.8500 270° West 199 229 7,000 -238 Level Chicago TRACON
Fri 07:51:00 PM 41.7667 -87.9333 242° Southwest 199 229 6,500 -714 Descending Chicago TRACON
Fri 07:52:00 PM 41.7333 -87.9833 228° Southwest 189 217 5,500 -868 Descending Chicago TRACON
Fri 07:52:16 PM 41.7342 -87.9897 280° West 197 227 5,400 -385 Descending Chicago Center
Fri 07:53:18 PM 41.7475 -88.0472 287° West 184 212 5,000 -672 Descending Chicago Center
Fri 07:54:21 PM 41.7911 -88.0781 332° Northwest 168 193 4,000 -484 Descending Chicago Center
Fri 07:55:22 PM 41.8294 -88.0492 29° Northeast 161 185 4,000 -439 Level Chicago Center
Fri 07:56:24 PM 41.8617 -88.0097 42° Northeast 159 183 3,100 -918 Descending Chicago Center
Fri 07:57:00 PM 41.8833 -87.9833 42° Northeast 159 183 2,500 -1,000 Descending Chicago TRACON

Login

Don't have an account? Register now (free) for customized features, flight alerts, and more!